createdAt,value
2017-10-04T00:01:54.988Z,3.17
2017-10-04T00:04:23.280Z,2.57
2017-10-04T00:06:51.587Z,2.40
2017-10-04T00:09:20.646Z,2.07
2017-10-04T00:11:51.125Z,3.73
2017-10-04T00:14:21.554Z,3.40
2017-10-04T00:16:51.868Z,2.97
2017-10-04T00:19:21.692Z,3.03
2017-10-04T00:21:51.514Z,2.80
2017-10-04T00:24:21.367Z,4.90
2017-10-04T00:26:51.170Z,2.97
2017-10-04T00:29:20.985Z,3.30
2017-10-04T00:31:51.277Z,3.17
2017-10-04T00:34:20.853Z,3.27
2017-10-04T00:36:50.810Z,3.57
2017-10-04T00:39:19.009Z,3.30
2017-10-04T00:41:47.274Z,2.77
2017-10-04T00:44:17.235Z,2.83
2017-10-04T00:46:46.466Z,3.37
2017-10-04T00:49:16.471Z,3.23
2017-10-04T00:51:44.736Z,2.97
2017-10-04T00:54:13.055Z,2.87
2017-10-04T00:56:41.452Z,2.90
2017-10-04T00:59:09.745Z,3.70
2017-10-04T01:01:39.674Z,2.50
2017-10-04T01:04:09.985Z,2.97
2017-10-04T01:06:39.809Z,3.30
2017-10-04T01:09:09.666Z,3.20
2017-10-04T01:11:39.471Z,3.40
2017-10-04T01:14:08.787Z,3.57
2017-10-04T01:16:37.122Z,4.67
2017-10-04T01:19:07.061Z,2.97
2017-10-04T01:21:36.862Z,3.97
2017-10-04T01:24:06.695Z,3.20
2017-10-04T01:26:36.495Z,4.13
2017-10-04T01:29:07.129Z,3.27
2017-10-04T01:31:36.958Z,4.43
2017-10-04T01:34:08.082Z,3.03
2017-10-04T01:36:37.891Z,3.23
2017-10-04T01:39:08.390Z,4.07
2017-10-04T01:41:38.220Z,3.27
2017-10-04T01:44:08.066Z,2.93
2017-10-04T01:46:37.874Z,3.27
2017-10-04T01:49:07.699Z,3.97
2017-10-04T01:51:37.528Z,4.20
2017-10-04T01:54:07.336Z,3.27
2017-10-04T01:56:37.134Z,4.70
2017-10-04T01:59:06.989Z,3.97
2017-10-04T02:01:36.806Z,3.93
2017-10-04T02:04:06.615Z,3.43
2017-10-04T02:06:36.427Z,3.90
2017-10-04T02:09:06.296Z,3.70
2017-10-04T02:11:36.094Z,4.10
2017-10-04T02:14:05.930Z,2.80
2017-10-04T02:16:36.228Z,2.93
2017-10-04T02:19:06.621Z,4.00
2017-10-04T02:21:36.444Z,4.10
2017-10-04T02:24:06.956Z,3.60
2017-10-04T02:26:36.779Z,4.50
2017-10-04T02:29:06.670Z,4.03
2017-10-04T02:31:36.492Z,3.20
2017-10-04T02:34:06.361Z,3.80
2017-10-04T02:36:36.174Z,3.47
2017-10-04T02:39:05.995Z,4.30
2017-10-04T02:41:35.854Z,3.97
2017-10-04T02:44:05.966Z,4.50
2017-10-04T02:46:35.784Z,3.93
2017-10-04T02:49:05.646Z,4.97
2017-10-04T02:51:35.486Z,4.20
2017-10-04T02:54:05.304Z,3.97
2017-10-04T02:56:35.227Z,3.77
2017-10-04T02:59:05.589Z,3.90
2017-10-04T03:01:35.442Z,5.60
2017-10-04T03:04:05.590Z,4.17
2017-10-04T03:06:35.799Z,4.37
2017-10-04T03:09:05.922Z,4.80
2017-10-04T03:11:34.096Z,3.90
2017-10-04T03:14:04.069Z,3.60
2017-10-04T03:16:33.909Z,3.73
2017-10-04T03:19:03.723Z,4.03
2017-10-04T03:21:33.606Z,3.73
2017-10-04T03:24:03.427Z,4.77
2017-10-04T03:26:33.255Z,3.53
2017-10-04T03:29:03.058Z,4.00
2017-10-04T03:31:32.990Z,4.07
2017-10-04T03:34:02.806Z,3.90
2017-10-04T03:36:32.656Z,6.50
2017-10-04T03:39:02.888Z,4.23
2017-10-04T03:41:31.213Z,4.97
2017-10-04T03:44:01.555Z,6.97
2017-10-04T03:46:32.234Z,4.80
2017-10-04T03:49:02.067Z,4.93
2017-10-04T03:51:31.922Z,5.13
2017-10-04T03:54:01.251Z,5.37
2017-10-04T03:56:31.307Z,4.87
2017-10-04T03:58:59.479Z,4.80
2017-10-04T04:01:29.430Z,4.70
2017-10-04T04:03:57.615Z,3.30
2017-10-04T04:06:28.529Z,4.60
2017-10-04T04:08:59.177Z,4.33
2017-10-04T04:11:29.361Z,4.10
2017-10-04T04:13:59.166Z,4.80
2017-10-04T04:16:29.046Z,4.80
2017-10-04T04:18:58.848Z,4.40
2017-10-04T04:21:28.712Z,4.60
2017-10-04T04:23:56.914Z,8.30
2017-10-04T04:26:26.882Z,5.80
2017-10-04T04:28:56.703Z,6.07
2017-10-04T04:31:26.582Z,6.37
2017-10-04T04:33:57.198Z,5.60
2017-10-04T04:36:27.877Z,6.00
2017-10-04T04:39:00.575Z,5.57
2017-10-04T04:41:31.158Z,5.47
2017-10-04T04:44:02.060Z,5.10
2017-10-04T04:46:31.918Z,4.70
2017-10-04T04:49:01.233Z,4.43
2017-10-04T04:51:31.210Z,5.60
2017-10-04T04:54:01.033Z,5.97
2017-10-04T04:56:29.326Z,5.40
2017-10-04T04:58:57.803Z,7.00
2017-10-04T05:01:26.090Z,4.47
2017-10-04T05:03:54.422Z,5.53
2017-10-04T05:06:23.474Z,5.33
2017-10-04T05:08:51.799Z,4.63
2017-10-04T05:11:20.844Z,4.87
2017-10-04T05:13:49.137Z,5.50
2017-10-04T05:16:17.439Z,6.10
2017-10-04T05:18:47.646Z,5.77
2017-10-04T05:21:18.303Z,6.67
2017-10-04T05:23:48.955Z,5.83
2017-10-04T05:26:18.801Z,6.73
2017-10-04T05:28:48.598Z,6.00
2017-10-04T05:31:19.626Z,5.60
2017-10-04T05:33:49.933Z,5.70
2017-10-04T05:36:20.160Z,5.90
2017-10-04T05:38:50.019Z,7.97
2017-10-04T05:41:20.142Z,6.80
2017-10-04T05:43:49.984Z,5.80
2017-10-04T05:46:19.822Z,4.97
2017-10-04T05:48:49.646Z,6.60
2017-10-04T05:51:19.399Z,6.97
2017-10-04T05:53:47.771Z,7.13
2017-10-04T05:56:17.556Z,6.20
2017-10-04T05:58:47.516Z,7.00
2017-10-04T06:01:17.362Z,5.77
2017-10-04T06:03:47.646Z,4.97
2017-10-04T06:06:17.451Z,5.67
2017-10-04T06:08:46.810Z,5.40
2017-10-04T06:11:16.231Z,5.90
2017-10-04T06:13:46.168Z,5.20
2017-10-04T06:16:14.342Z,5.10
2017-10-04T06:18:44.357Z,5.30
2017-10-04T06:21:14.217Z,5.30
2017-10-04T06:23:44.981Z,5.97
2017-10-04T06:26:15.124Z,4.80
2017-10-04T06:28:44.579Z,4.97
2017-10-04T06:31:14.087Z,5.80
2017-10-04T06:33:42.365Z,5.00
2017-10-04T06:36:10.672Z,5.00
2017-10-04T06:38:39.840Z,4.97
2017-10-04T06:41:08.147Z,4.90
2017-10-04T06:43:37.210Z,5.47
2017-10-04T06:46:07.166Z,6.63
2017-10-04T06:48:35.754Z,6.13
2017-10-04T06:51:09.287Z,6.70
2017-10-04T06:53:39.524Z,5.30
2017-10-04T06:56:09.347Z,5.10
2017-10-04T06:58:37.515Z,6.03
2017-10-04T07:01:08.326Z,6.00
2017-10-04T07:03:38.210Z,5.20
2017-10-04T07:06:08.004Z,5.07
2017-10-04T07:08:37.794Z,5.23
2017-10-04T07:11:07.626Z,5.30
2017-10-04T07:13:38.416Z,5.43
2017-10-04T07:16:08.265Z,5.40
2017-10-04T07:18:38.073Z,5.57
2017-10-04T07:21:07.923Z,5.63
2017-10-04T07:23:37.730Z,5.30
2017-10-04T07:26:10.870Z,4.67
2017-10-04T07:28:40.722Z,5.43
2017-10-04T07:31:10.531Z,4.67
2017-10-04T07:33:40.345Z,5.43
2017-10-04T07:36:10.180Z,4.47
2017-10-04T07:38:39.979Z,4.77
2017-10-04T07:41:10.185Z,5.60
2017-10-04T07:43:40.001Z,4.83
2017-10-04T07:46:09.718Z,4.63
2017-10-04T07:48:40.539Z,4.73
2017-10-04T07:51:10.705Z,5.67
2017-10-04T07:53:40.535Z,5.10
2017-10-04T07:56:10.336Z,5.47
2017-10-04T07:58:40.193Z,5.03
2017-10-04T08:01:10.953Z,4.33
2017-10-04T08:03:40.768Z,5.47
2017-10-04T08:06:10.578Z,6.20
2017-10-04T08:08:41.340Z,5.10
2017-10-04T08:13:39.454Z,4.30
2017-10-04T08:16:09.466Z,4.70
2017-10-04T08:18:39.279Z,4.37
2017-10-04T08:21:09.000Z,5.47
2017-10-04T08:23:38.952Z,4.20
2017-10-04T08:26:09.009Z,5.17
2017-10-04T08:28:38.821Z,3.87
2017-10-04T08:31:08.764Z,3.53
2017-10-04T08:33:37.828Z,4.17
2017-10-04T08:36:07.797Z,4.00
2017-10-04T08:38:37.597Z,4.30
2017-10-04T08:41:07.442Z,3.80
2017-10-04T08:43:37.269Z,3.80
2017-10-04T08:46:06.210Z,3.90
2017-10-04T08:48:37.836Z,4.80
2017-10-04T08:51:07.887Z,3.90
2017-10-04T08:53:36.375Z,4.30
2017-10-04T08:56:06.338Z,3.60
2017-10-04T08:58:36.149Z,4.30
2017-10-04T09:01:05.987Z,3.83
2017-10-04T09:03:34.190Z,5.63
2017-10-04T09:06:07.053Z,5.10
2017-10-04T09:08:36.876Z,4.20
2017-10-04T09:11:07.892Z,4.30
2017-10-04T09:13:37.735Z,5.63
2017-10-04T09:16:08.746Z,3.83
2017-10-04T09:18:38.623Z,3.83
2017-10-04T09:21:09.079Z,4.23
2017-10-04T09:23:38.928Z,4.27
2017-10-04T09:26:08.764Z,4.70
2017-10-04T09:28:39.592Z,6.10
2017-10-04T09:31:09.451Z,7.13
2017-10-04T09:33:39.314Z,4.53
2017-10-04T09:36:09.144Z,4.50
2017-10-04T09:38:39.409Z,4.30
2017-10-04T09:41:09.327Z,5.20
2017-10-04T09:43:38.434Z,4.90
2017-10-04T09:46:08.376Z,4.00
2017-10-04T09:48:38.232Z,4.13
2017-10-04T09:51:06.736Z,5.03
2017-10-04T09:53:36.674Z,4.80
2017-10-04T09:56:07.191Z,5.03
2017-10-04T09:58:36.930Z,3.90
2017-10-04T10:01:05.146Z,3.60
2017-10-04T10:03:33.753Z,4.77
2017-10-04T10:06:03.705Z,4.20
2017-10-04T10:08:31.993Z,4.23
2017-10-04T10:11:02.927Z,4.40
2017-10-04T10:13:32.778Z,4.40
2017-10-04T10:16:00.943Z,5.00
2017-10-04T10:18:31.238Z,5.00
2017-10-04T10:21:01.115Z,5.00
2017-10-04T10:23:31.403Z,4.43
2017-10-04T10:26:01.195Z,4.83
2017-10-04T10:28:31.371Z,4.30
2017-10-04T10:31:02.106Z,2.93
2017-10-04T10:33:33.284Z,4.43
2017-10-04T10:36:02.216Z,4.80
2017-10-04T10:38:30.511Z,4.40
2017-10-04T10:41:01.236Z,4.43
2017-10-04T10:43:29.382Z,3.53
2017-10-04T10:45:59.438Z,4.50
2017-10-04T10:48:29.252Z,4.40
2017-10-04T10:50:59.063Z,4.03
2017-10-04T10:53:28.887Z,3.67
2017-10-04T10:55:58.747Z,4.23
2017-10-04T10:58:27.675Z,4.50
2017-10-04T11:00:57.517Z,4.20
2017-10-04T11:03:27.326Z,4.63
2017-10-04T11:05:57.152Z,4.37
2017-10-04T11:08:27.081Z,4.20
2017-10-04T11:10:56.910Z,4.90
2017-10-04T11:13:27.838Z,4.40
2017-10-04T11:15:57.667Z,4.80
2017-10-04T11:18:27.756Z,4.93
2017-10-04T11:20:57.582Z,5.35
2017-10-04T11:23:27.402Z,4.47
2017-10-04T11:25:57.279Z,4.23
2017-10-04T11:28:27.078Z,4.27
2017-10-04T11:30:57.267Z,4.73
2017-10-04T11:33:25.465Z,4.27
2017-10-04T11:35:55.444Z,3.77
2017-10-04T11:38:25.763Z,4.43
2017-10-04T11:40:54.373Z,4.30
2017-10-04T11:43:22.669Z,4.50
2017-10-04T11:45:52.631Z,4.07
2017-10-04T11:48:22.826Z,4.13
2017-10-04T11:50:52.633Z,3.93
2017-10-04T11:53:22.745Z,4.67
2017-10-04T11:55:52.868Z,4.80
2017-10-04T11:58:22.698Z,4.00
2017-10-04T12:00:52.530Z,4.10
2017-10-04T12:03:22.823Z,4.83
2017-10-04T12:05:52.663Z,4.67
2017-10-04T12:08:22.474Z,5.03
2017-10-04T12:10:52.387Z,4.07
2017-10-04T12:13:22.240Z,4.80
2017-10-04T12:15:52.059Z,4.50
2017-10-04T12:18:21.896Z,4.30
2017-10-04T12:20:51.752Z,4.30
2017-10-04T12:23:21.587Z,4.33
2017-10-04T12:25:51.427Z,4.80
2017-10-04T12:28:21.294Z,4.80
2017-10-04T12:30:51.095Z,4.80
2017-10-04T12:33:20.894Z,6.87
2017-10-04T12:35:50.846Z,3.93
2017-10-04T12:38:20.667Z,6.80
2017-10-04T12:40:48.837Z,5.23
2017-10-04T12:43:18.766Z,4.33
2017-10-04T12:45:47.717Z,4.30
2017-10-04T12:48:17.683Z,3.70
2017-10-04T12:50:47.519Z,3.93
2017-10-04T12:53:17.604Z,4.40
2017-10-04T12:55:47.416Z,7.10
2017-10-04T12:58:17.473Z,4.53
2017-10-04T13:00:47.313Z,4.40
2017-10-04T13:03:17.402Z,3.93
2017-10-04T13:05:47.238Z,3.83
2017-10-04T13:08:17.332Z,3.87
2017-10-04T13:10:47.162Z,4.33
2017-10-04T13:13:16.959Z,4.00
2017-10-04T13:15:45.152Z,2.97
2017-10-04T13:18:15.057Z,3.37
2017-10-04T13:20:45.045Z,3.77
2017-10-04T13:23:14.868Z,4.13
2017-10-04T13:25:44.690Z,4.10
2017-10-04T13:28:13.203Z,5.00
2017-10-04T13:30:41.511Z,3.90
2017-10-04T13:33:11.448Z,4.63
2017-10-04T13:35:41.266Z,3.73
2017-10-04T13:38:11.057Z,5.10
2017-10-04T13:40:40.886Z,3.70
2017-10-04T13:43:10.736Z,4.70
2017-10-04T13:45:40.664Z,4.40
2017-10-04T13:48:10.474Z,3.87
2017-10-04T13:50:40.306Z,4.43
2017-10-04T13:53:11.716Z,3.77
2017-10-04T13:55:41.527Z,3.73
2017-10-04T13:58:11.571Z,3.67
2017-10-04T14:00:41.413Z,4.40
2017-10-04T14:03:11.281Z,4.20
2017-10-04T14:05:39.842Z,4.00
2017-10-04T14:08:08.154Z,5.03
2017-10-04T14:10:38.108Z,3.80
2017-10-04T14:13:06.302Z,3.97
2017-10-04T14:15:36.236Z,3.97
2017-10-04T14:18:06.311Z,3.80
2017-10-04T14:20:36.143Z,4.20
2017-10-04T14:23:06.354Z,5.07
2017-10-04T14:25:36.223Z,4.13
2017-10-04T14:28:06.059Z,4.33
2017-10-04T14:30:35.886Z,4.50
2017-10-04T14:33:05.735Z,3.63
2017-10-04T14:35:35.562Z,4.63
2017-10-04T14:38:05.362Z,4.40
2017-10-04T14:40:35.458Z,3.43
2017-10-04T14:43:05.291Z,3.33
2017-10-04T14:45:35.712Z,3.13
2017-10-04T14:48:05.507Z,3.43
2017-10-04T14:50:35.625Z,4.30
2017-10-04T14:53:05.436Z,4.43
2017-10-04T14:55:36.516Z,3.80
2017-10-04T14:58:07.004Z,4.17
2017-10-04T15:00:36.851Z,4.10
2017-10-04T15:03:07.318Z,3.90
2017-10-04T15:05:36.340Z,3.50
2017-10-04T15:08:06.688Z,3.40
2017-10-04T15:10:36.507Z,4.53
2017-10-04T15:13:06.670Z,4.63
2017-10-04T15:15:36.555Z,4.00
2017-10-04T15:18:06.726Z,5.57
2017-10-04T15:20:36.587Z,3.83
2017-10-04T15:23:06.762Z,3.70
2017-10-04T15:25:36.583Z,4.03
2017-10-04T15:28:06.615Z,4.20
2017-10-04T15:30:36.911Z,3.07
2017-10-04T15:33:06.753Z,5.73
2017-10-04T15:35:36.935Z,4.80
2017-10-04T15:38:06.798Z,3.73
2017-10-04T15:40:36.661Z,4.10
2017-10-04T15:43:06.597Z,5.50
2017-10-04T15:45:34.956Z,4.10
2017-10-04T15:48:03.664Z,3.60
2017-10-04T15:50:31.991Z,3.70
2017-10-04T15:53:02.546Z,5.60
2017-10-04T15:55:32.431Z,3.20
2017-10-04T15:58:01.370Z,4.30
2017-10-04T16:00:30.846Z,4.27
2017-10-04T16:03:01.286Z,3.60
2017-10-04T16:05:31.114Z,3.80
2017-10-04T16:08:00.941Z,3.70
2017-10-04T16:10:31.082Z,4.70
2017-10-04T16:12:59.882Z,4.53
2017-10-04T16:15:29.875Z,3.50
2017-10-04T16:17:59.717Z,4.60
2017-10-04T16:20:27.888Z,4.37
2017-10-04T16:22:58.105Z,4.60
2017-10-04T16:25:27.941Z,4.00
2017-10-04T16:27:57.766Z,4.40
2017-10-04T16:30:27.809Z,4.10
2017-10-04T16:32:56.733Z,5.83
2017-10-04T16:35:25.101Z,3.70
2017-10-04T16:37:53.712Z,3.80
2017-10-04T16:40:22.375Z,4.47
2017-10-04T16:42:52.306Z,4.33
2017-10-04T16:45:22.159Z,4.43
2017-10-04T16:54:40.001Z,4.17
2017-10-04T16:57:09.860Z,4.40
2017-10-04T16:59:39.520Z,4.50
2017-10-04T17:02:09.484Z,3.80
2017-10-04T17:04:39.641Z,3.93
2017-10-04T17:07:09.467Z,4.27
2017-10-04T17:09:39.306Z,4.37
2017-10-04T17:12:08.235Z,4.20
2017-10-04T17:14:38.206Z,4.00
2017-10-04T17:17:08.378Z,4.90
2017-10-04T17:19:38.183Z,5.10
2017-10-04T17:22:08.047Z,4.60
2017-10-04T17:24:37.894Z,4.93
2017-10-04T17:27:07.750Z,4.83
2017-10-04T17:29:37.947Z,4.97
2017-10-04T17:32:07.783Z,4.83
2017-10-04T17:34:38.302Z,5.67
2017-10-04T17:37:08.101Z,4.67
2017-10-04T17:39:38.268Z,6.10
2017-10-04T17:42:08.966Z,4.47
2017-10-04T17:44:39.220Z,4.97
2017-10-04T17:47:09.063Z,4.30
2017-10-04T17:49:38.926Z,3.77
2017-10-04T17:52:07.121Z,4.27
2017-10-04T17:54:37.070Z,4.80
2017-10-04T17:57:06.910Z,4.57
2017-10-04T17:59:37.156Z,5.20
2017-10-04T18:02:07.036Z,5.40
2017-10-04T18:04:36.883Z,4.17
2017-10-04T18:07:06.714Z,4.57
2017-10-04T18:09:35.659Z,5.57
2017-10-04T18:12:06.189Z,4.80
2017-10-04T18:14:36.037Z,5.10
2017-10-04T18:17:05.854Z,4.50
2017-10-04T18:19:35.654Z,4.70
2017-10-04T18:22:05.778Z,4.00
2017-10-04T18:24:36.306Z,4.70
2017-10-04T18:27:06.253Z,4.30
2017-10-04T18:29:35.448Z,5.30
2017-10-04T18:32:05.401Z,4.83
2017-10-04T18:34:35.255Z,5.20
2017-10-04T18:37:05.227Z,4.90
2017-10-04T18:39:35.044Z,3.93
2017-10-04T18:42:04.842Z,4.10
2017-10-04T18:44:34.912Z,4.97
2017-10-04T18:47:05.083Z,4.93
2017-10-04T18:49:34.940Z,5.47
2017-10-04T18:52:04.763Z,4.57
2017-10-04T18:54:35.514Z,6.27
2017-10-04T18:57:05.323Z,4.27
2017-10-04T18:59:35.092Z,4.60
2017-10-04T19:02:05.047Z,5.53
2017-10-04T19:04:34.907Z,5.20
2017-10-04T19:07:04.831Z,5.13
2017-10-04T19:09:34.693Z,5.00
2017-10-04T19:12:04.552Z,4.47
2017-10-04T19:14:34.396Z,8.80
2017-10-04T19:17:04.527Z,7.87
2017-10-04T19:19:34.349Z,6.30
2017-10-04T19:22:04.481Z,6.73
2017-10-04T19:24:34.312Z,5.83
2017-10-04T19:27:04.607Z,5.20
2017-10-04T19:29:34.422Z,6.23
2017-10-04T19:32:04.357Z,5.20
2017-10-04T19:34:34.180Z,4.70
2017-10-04T19:37:04.429Z,6.20
2017-10-04T19:39:33.721Z,5.00
2017-10-04T19:42:03.666Z,5.63
2017-10-04T19:44:33.506Z,5.07
2017-10-04T19:47:03.436Z,6.40
2017-10-04T19:49:33.567Z,6.03
2017-10-04T19:52:03.382Z,5.10
2017-10-04T19:54:33.495Z,4.90
2017-10-04T19:57:03.332Z,5.63
2017-10-04T19:59:33.148Z,5.03
2017-10-04T20:02:02.971Z,5.57
2017-10-04T20:04:33.908Z,6.13
2017-10-04T20:07:03.725Z,5.43
2017-10-04T20:09:33.542Z,5.70
2017-10-04T20:12:03.356Z,5.70
2017-10-04T20:14:33.243Z,5.13
2017-10-04T20:17:03.034Z,6.63
2017-10-04T20:19:32.858Z,5.23
2017-10-04T20:22:02.681Z,6.97
2017-10-04T20:24:32.506Z,5.23
2017-10-04T20:27:02.695Z,5.17
2017-10-04T20:29:32.514Z,6.70
2017-10-04T20:32:02.383Z,5.67
2017-10-04T20:34:32.206Z,7.00
2017-10-04T20:37:02.746Z,5.80
2017-10-04T20:39:32.642Z,6.03
2017-10-04T20:42:02.476Z,5.90
2017-10-04T20:44:32.297Z,8.27
2017-10-04T20:47:02.210Z,7.23
2017-10-04T20:49:31.995Z,5.60
2017-10-04T20:52:02.449Z,6.57
2017-10-04T20:54:32.306Z,7.50
2017-10-04T20:57:02.492Z,7.40
2017-10-04T20:59:33.249Z,7.13
2017-10-04T21:02:03.450Z,6.13
2017-10-04T21:04:33.378Z,7.27
2017-10-04T21:07:03.249Z,6.20
2017-10-04T21:09:33.769Z,9.07
2017-10-04T21:12:03.593Z,6.23
2017-10-04T21:14:33.412Z,7.53
2017-10-04T21:17:03.575Z,6.73
2017-10-04T21:19:33.390Z,7.07
2017-10-04T21:22:01.951Z,6.80
2017-10-04T21:24:32.200Z,7.03
2017-10-04T21:27:02.040Z,6.73
2017-10-04T21:29:31.874Z,5.73
2017-10-04T21:32:01.771Z,6.57
2017-10-04T21:34:31.582Z,6.17
2017-10-04T21:37:01.711Z,6.90
2017-10-04T21:39:31.533Z,5.50
2017-10-04T21:42:01.360Z,7.07
2017-10-04T21:44:31.167Z,6.00
2017-10-04T21:47:01.094Z,6.47
2017-10-04T21:49:31.262Z,5.57
2017-10-04T21:52:01.065Z,5.23
2017-10-04T21:54:31.206Z,6.00
2017-10-04T21:56:59.403Z,6.83
2017-10-04T21:59:29.321Z,7.03
2017-10-04T22:01:58.612Z,6.37
2017-10-04T22:04:28.763Z,4.90
2017-10-04T22:06:58.609Z,7.30
2017-10-04T22:09:29.315Z,6.03
2017-10-04T22:11:59.902Z,5.80
2017-10-04T22:14:29.692Z,6.50
2017-10-04T22:16:59.548Z,5.40
2017-10-04T22:19:29.688Z,5.67
2017-10-04T22:21:59.506Z,5.70
2017-10-04T22:24:29.642Z,6.33
2017-10-04T22:26:59.457Z,5.13
2017-10-04T22:29:29.601Z,6.60
2017-10-04T22:31:59.391Z,6.00
2017-10-04T22:34:29.326Z,6.03
2017-10-04T22:36:59.150Z,5.83
2017-10-04T22:39:28.974Z,4.60
2017-10-04T22:41:58.838Z,6.13
2017-10-04T22:44:29.185Z,5.17
2017-10-04T22:46:59.017Z,5.57
2017-10-04T22:49:28.842Z,5.20
2017-10-04T22:51:59.161Z,5.97
2017-10-04T22:54:28.987Z,6.50
2017-10-04T22:56:59.141Z,5.17
2017-10-04T22:59:28.978Z,5.27
2017-10-04T23:01:58.843Z,5.27
2017-10-04T23:04:29.603Z,5.10
2017-10-04T23:06:59.472Z,6.07
2017-10-04T23:09:29.633Z,6.00
2017-10-04T23:12:01.134Z,5.03
2017-10-04T23:14:31.294Z,5.03
2017-10-04T23:17:01.090Z,5.80
2017-10-04T23:19:30.949Z,5.90
2017-10-04T23:21:59.936Z,4.47
2017-10-04T23:24:30.115Z,5.70
2017-10-04T23:26:58.284Z,5.20
2017-10-04T23:29:28.235Z,5.30
2017-10-04T23:31:58.046Z,4.57
2017-10-04T23:34:26.555Z,4.90
2017-10-04T23:36:55.987Z,5.30
2017-10-04T23:39:26.249Z,5.00
2017-10-04T23:41:56.124Z,4.53
2017-10-04T23:44:25.371Z,5.20
2017-10-04T23:46:55.650Z,4.80
2017-10-04T23:49:26.350Z,5.10
2017-10-04T23:51:56.187Z,4.27
2017-10-04T23:54:25.995Z,4.60
2017-10-04T23:56:54.143Z,4.83
2017-10-04T23:59:24.211Z,5.10
